Time;durP1;ratioP1;P1;durP2;ratioP2;P2;SDS_P1;SDS_P2;PMS_P1;PMS_P2;Temp;Humidity;BMP_temperature;BMP_pressure;BME280_temperature;BME280_humidity;BME280_pressure;Samples;Min_cycle;Max_cycle;Signal;HPM_P1;HPM_P2
2023/10/27 03:32:58;;;;;;;2.10;1.20;;;9.40;99.90;;;;;;4739152;23;20236;-72
2023/10/27 03:35:24;;;;;;;1.13;1.02;;;9.40;99.90;;;;;;4968185;28;20212;-73
2023/10/27 03:37:51;;;;;;;1.98;1.27;;;9.40;99.90;;;;;;4971903;28;20583;-73
2023/10/27 03:40:18;;;;;;;2.30;1.58;;;9.40;99.90;;;;;;4971987;28;20223;-73
2023/10/27 03:42:44;;;;;;;1.40;1.10;;;9.40;99.90;;;;;;4972753;28;20223;-73
2023/10/27 03:45:11;;;;;;;1.92;1.33;;;9.40;99.90;;;;;;4972314;28;20223;-73
2023/10/27 03:47:38;;;;;;;2.55;1.63;;;9.30;99.90;;;;;;4972280;28;20216;-73
2023/10/27 03:50:10;;;;;;;2.55;1.30;;;9.30;99.90;;;;;;4971726;28;20200;-72
2023/10/27 03:52:37;;;;;;;1.38;1.20;;;9.30;99.90;;;;;;4969715;28;20220;-73
2023/10/27 03:55:04;;;;;;;0.80;0.80;;;9.40;99.90;;;;;;4971458;28;20574;-73
2023/10/27 03:57:35;;;;;;;1.20;1.10;;;9.40;99.90;;;;;;4971490;28;20243;-73
2023/10/27 04:00:02;;;;;;;1.75;1.05;;;9.40;99.90;;;;;;4971320;28;20220;-73
2023/10/27 04:02:29;;;;;;;1.13;0.98;;;9.40;99.90;;;;;;4971503;28;20802;-73
2023/10/27 04:04:56;;;;;;;1.50;1.20;;;9.40;99.90;;;;;;4971345;28;20295;-73
2023/10/27 04:07:24;;;;;;;1.33;1.23;;;9.40;99.90;;;;;;4971159;28;20208;-73
2023/10/27 04:09:51;;;;;;;1.08;0.98;;;9.40;99.90;;;;;;4971523;28;20200;-72
2023/10/27 04:12:18;;;;;;;3.10;1.45;;;9.40;99.90;;;;;;4971614;28;20224;-72
2023/10/27 04:14:45;;;;;;;2.40;1.20;;;9.40;99.90;;;;;;4971481;28;20610;-72
2023/10/27 04:17:12;;;;;;;1.10;1.00;;;9.40;99.90;;;;;;4971351;28;20207;-73
2023/10/27 04:19:39;;;;;;;1.30;1.20;;;9.40;99.90;;;;;;4971591;28;20616;-73
2023/10/27 04:22:05;;;;;;;1.25;0.85;;;9.30;99.90;;;;;;4970995;28;20258;-72
2023/10/27 04:24:33;;;;;;;2.15;1.15;;;9.30;99.90;;;;;;4971249;28;20310;-73
2023/10/27 04:27:00;;;;;;;1.48;1.17;;;9.30;99.90;;;;;;4971115;28;20200;-73
2023/10/27 04:29:27;;;;;;;1.20;1.10;;;9.30;99.90;;;;;;4971407;28;20574;-73
2023/10/27 04:31:54;;;;;;;3.20;1.33;;;9.30;99.90;;;;;;4966931;28;20235;-72
2023/10/27 04:34:23;;;;;;;2.38;1.55;;;9.30;99.90;;;;;;4971850;28;20203;-72
2023/10/27 04:36:50;;;;;;;0.93;0.80;;;9.40;99.90;;;;;;4971463;28;20214;-72
2023/10/27 04:39:17;;;;;;;1.30;1.10;;;9.40;99.90;;;;;;4971786;28;20696;-72
2023/10/27 04:41:45;;;;;;;1.10;1.00;;;9.40;99.90;;;;;;4971821;28;20239;-73
2023/10/27 04:44:12;;;;;;;1.50;1.13;;;9.40;99.90;;;;;;4971820;28;20573;-72
2023/10/27 04:46:38;;;;;;;1.75;1.30;;;9.40;99.90;;;;;;4971269;28;20214;-73
2023/10/27 04:49:05;;;;;;;3.13;1.48;;;9.40;99.90;;;;;;4971678;28;20208;-72
2023/10/27 04:51:32;;;;;;;1.50;1.10;;;9.40;99.90;;;;;;4973124;28;20655;-73
2023/10/27 04:53:58;;;;;;;1.92;1.25;;;9.40;99.90;;;;;;4975302;28;20212;-73
2023/10/27 04:56:29;;;;;;;1.30;1.10;;;9.50;99.90;;;;;;4972750;28;20215;-73
2023/10/27 04:58:58;;;;;;;3.92;1.58;;;9.40;99.90;;;;;;4968170;28;20346;-73
2023/10/27 05:01:25;;;;;;;1.98;1.20;;;9.50;99.90;;;;;;4974862;28;20593;-73
2023/10/27 05:03:52;;;;;;;1.80;1.02;;;9.50;99.90;;;;;;4973291;28;20258;-73
2023/10/27 05:06:19;;;;;;;1.83;1.05;;;9.50;99.90;;;;;;4974438;28;20204;-73
2023/10/27 05:08:47;;;;;;;1.00;0.90;;;9.50;99.90;;;;;;4975061;28;20204;-73
2023/10/27 05:11:14;;;;;;;1.35;1.25;;;9.40;99.90;;;;;;4975165;28;20597;-73
2023/10/27 05:13:41;;;;;;;1.40;1.10;;;9.40;99.90;;;;;;4975041;28;20220;-73
2023/10/27 05:16:09;;;;;;;1.38;1.27;;;9.50;99.90;;;;;;4974472;28;20211;-72
2023/10/27 05:18:38;;;;;;;1.88;1.10;;;9.50;99.90;;;;;;4974890;28;20216;-72
2023/10/27 05:21:05;;;;;;;1.42;1.33;;;9.50;99.90;;;;;;4974888;28;20229;-73
2023/10/27 05:23:32;;;;;;;1.38;0.98;;;9.50;99.90;;;;;;4974765;28;20200;-72
2023/10/27 05:25:59;;;;;;;2.00;1.80;;;9.50;99.90;;;;;;4974406;28;20212;-73
2023/10/27 05:28:26;;;;;;;1.50;1.40;;;9.50;99.90;;;;;;4974966;28;20208;-73
2023/10/27 05:30:54;;;;;;;2.45;1.15;;;9.50;99.90;;;;;;4974587;28;20322;-73
2023/10/27 05:33:22;;;;;;;1.23;1.02;;;9.50;99.90;;;;;;4974776;28;20266;-73
2023/10/27 05:35:49;;;;;;;2.40;1.13;;;9.50;99.90;;;;;;4974185;28;20219;-73
2023/10/27 05:38:18;;;;;;;1.08;0.98;;;9.50;99.90;;;;;;4974554;28;20211;-72
2023/10/27 05:40:44;;;;;;;2.08;1.10;;;9.50;99.90;;;;;;4974384;28;20310;-72
2023/10/27 05:43:12;;;;;;;2.15;1.40;;;9.50;99.90;;;;;;4974547;28;20204;-72
2023/10/27 05:45:39;;;;;;;4.45;1.50;;;9.50;99.90;;;;;;4974021;28;20216;-72
2023/10/27 05:48:06;;;;;;;1.52;1.40;;;9.50;99.90;;;;;;4974441;28;20219;-72
2023/10/27 05:50:34;;;;;;;1.58;1.20;;;9.50;99.90;;;;;;4974367;28;20224;-72
2023/10/27 05:53:01;;;;;;;1.33;1.23;;;9.50;99.90;;;;;;4974351;28;20219;-73
2023/10/27 05:55:28;;;;;;;3.03;1.55;;;9.50;99.90;;;;;;4974175;28;20212;-72
2023/10/27 05:57:55;;;;;;;1.05;0.90;;;9.50;99.90;;;;;;4968743;28;20208;-72
2023/10/27 06:00:22;;;;;;;1.13;1.00;;;9.50;99.90;;;;;;4973842;28;20224;-73
2023/10/27 06:02:52;;;;;;;1.73;1.10;;;9.50;99.90;;;;;;4973339;28;20577;-72
2023/10/27 06:05:19;;;;;;;1.00;0.90;;;9.50;99.90;;;;;;4973969;28;20203;-73
2023/10/27 06:07:47;;;;;;;1.75;1.55;;;9.40;99.90;;;;;;4973819;28;20208;-73
2023/10/27 06:10:18;;;;;;;6.07;1.27;;;9.40;99.90;;;;;;4969695;28;20722;-72
2023/10/27 06:12:46;;;;;;;2.28;1.42;;;9.50;99.90;;;;;;4972082;28;20593;-72
2023/10/27 06:15:14;;;;;;;3.55;1.23;;;9.50;99.90;;;;;;4972867;28;20222;-72
2023/10/27 06:17:43;;;;;;;1.20;1.10;;;9.40;99.90;;;;;;4972027;28;20211;-73
2023/10/27 06:20:11;;;;;;;1.10;0.90;;;9.40;99.90;;;;;;4973877;28;20306;-72
2023/10/27 06:22:43;;;;;;;1.52;1.20;;;9.40;99.90;;;;;;4973712;28;20208;-72
2023/10/27 06:25:13;;;;;;;1.17;1.08;;;9.40;99.90;;;;;;4972333;28;20235;-72
2023/10/27 06:27:40;;;;;;;1.92;1.40;;;9.50;99.90;;;;;;4973422;28;20208;-72
2023/10/27 06:30:11;;;;;;;2.50;1.10;;;9.50;99.90;;;;;;4973932;28;20238;-72
2023/10/27 06:32:38;;;;;;;2.92;1.20;;;9.50;99.90;;;;;;4973121;28;20236;-72
2023/10/27 06:35:07;;;;;;;1.30;1.08;;;9.50;99.90;;;;;;4973324;28;20200;-72
2023/10/27 06:37:35;;;;;;;0.80;0.80;;;9.50;99.90;;;;;;4973308;28;20212;-72
2023/10/27 06:40:07;;;;;;;4.85;1.10;;;9.50;99.90;;;;;;4973300;28;20224;-72
2023/10/27 06:42:36;;;;;;;1.45;1.27;;;9.50;99.90;;;;;;4973325;28;20323;-72
2023/10/27 06:45:04;;;;;;;1.17;0.80;;;9.50;99.90;;;;;;4972910;28;20212;-72
2023/10/27 06:47:35;;;;;;;1.55;1.30;;;9.50;99.90;;;;;;4971417;28;20740;-72
2023/10/27 06:50:04;;;;;;;1.60;1.10;;;9.50;99.90;;;;;;4973523;28;20201;-72
2023/10/27 06:52:32;;;;;;;2.10;0.90;;;9.60;99.90;;;;;;4973313;28;20239;-72
2023/10/27 06:55:00;;;;;;;1.70;1.27;;;9.60;99.90;;;;;;4972731;28;20313;-72
2023/10/27 06:57:29;;;;;;;1.17;0.98;;;9.60;99.90;;;;;;4972747;28;20204;-72
2023/10/27 06:59:58;;;;;;;2.80;1.88;;;9.70;99.90;;;;;;4966883;28;20659;-72
2023/10/27 07:02:26;;;;;;;1.38;1.10;;;9.70;99.90;;;;;;4972834;28;20224;-72
2023/10/27 07:04:54;;;;;;;1.00;0.90;;;9.80;99.90;;;;;;4972487;28;20274;-71
2023/10/27 07:07:22;;;;;;;1.30;0.90;;;9.70;99.90;;;;;;4972741;28;20216;-72
2023/10/27 07:09:51;;;;;;;1.80;1.42;;;9.80;99.90;;;;;;4972660;28;20254;-72
2023/10/27 07:12:18;;;;;;;1.05;0.90;;;9.80;99.90;;;;;;4972765;28;20255;-72
2023/10/27 07:14:49;;;;;;;1.10;0.90;;;9.80;99.90;;;;;;4972442;28;20589;-72
2023/10/27 07:17:22;;;;;;;0.80;0.70;;;9.80;99.90;;;;;;4972321;28;20200;-72
2023/10/27 07:19:52;;;;;;;1.35;0.90;;;9.90;99.90;;;;;;4972068;28;20232;-72
2023/10/27 07:22:20;;;;;;;1.13;0.80;;;9.90;99.90;;;;;;4972402;28;20268;-72
2023/10/27 07:24:48;;;;;;;1.65;0.90;;;9.90;99.90;;;;;;4972285;28;20286;-72
2023/10/27 07:27:16;;;;;;;1.00;0.90;;;9.90;99.90;;;;;;4972323;28;20699;-73
2023/10/27 07:29:46;;;;;;;0.90;0.77;;;9.90;99.90;;;;;;4972442;28;20548;-72
2023/10/27 07:32:14;;;;;;;0.85;0.77;;;9.90;99.90;;;;;;4972557;28;20246;-72
2023/10/27 07:34:44;;;;;;;0.80;0.80;;;9.80;99.90;;;;;;4972060;28;20211;-72
2023/10/27 07:37:17;;;;;;;1.33;0.80;;;9.90;99.90;;;;;;4972176;28;20210;-73
2023/10/27 07:39:45;;;;;;;0.90;0.77;;;10.00;99.90;;;;;;4971911;28;20251;-72
2023/10/27 07:42:13;;;;;;;0.90;0.75;;;10.00;99.90;;;;;;4972374;28;20259;-72
2023/10/27 07:44:41;;;;;;;0.90;0.80;;;10.00;99.90;;;;;;4968344;28;20668;-72
2023/10/27 07:47:08;;;;;;;0.80;0.80;;;10.10;99.90;;;;;;4968649;28;20221;-72
2023/10/27 07:49:35;;;;;;;0.80;0.73;;;10.20;99.90;;;;;;4971794;28;20412;-73
2023/10/27 07:52:05;;;;;;;1.85;0.82;;;10.30;99.90;;;;;;4971827;28;20728;-72
2023/10/27 07:54:32;;;;;;;1.00;0.70;;;10.30;99.90;;;;;;4971396;28;20211;-72
2023/10/27 07:56:59;;;;;;;1.52;0.95;;;10.30;99.90;;;;;;4969998;28;20773;-72
2023/10/27 07:59:27;;;;;;;1.42;0.80;;;10.30;99.90;;;;;;4971485;28;20617;-73
2023/10/27 08:01:54;;;;;;;0.80;0.80;;;10.30;99.90;;;;;;4963230;28;20772;-72
2023/10/27 08:04:23;;;;;;;1.10;0.80;;;10.30;99.90;;;;;;4972076;28;20676;-70
2023/10/27 08:06:50;;;;;;;0.70;0.70;;;10.30;99.90;;;;;;4971068;28;20291;-70
2023/10/27 08:09:19;;;;;;;0.90;0.80;;;10.30;99.90;;;;;;4972111;28;20232;-70
2023/10/27 08:11:49;;;;;;;0.98;0.70;;;10.30;99.90;;;;;;4968057;28;20238;-72
2023/10/27 08:14:16;;;;;;;1.10;0.80;;;10.30;99.90;;;;;;4970265;28;20204;-72
2023/10/27 08:16:44;;;;;;;0.90;0.75;;;10.30;99.90;;;;;;4970609;28;20208;-72
2023/10/27 08:19:10;;;;;;;0.90;0.75;;;10.40;99.90;;;;;;4971874;28;20259;-72
2023/10/27 08:21:37;;;;;;;1.83;1.00;;;10.40;99.90;;;;;;4971448;28;20318;-72
2023/10/27 08:24:06;;;;;;;0.80;0.70;;;10.40;99.90;;;;;;4970845;28;20211;-72
2023/10/27 08:26:34;;;;;;;0.80;0.75;;;10.50;99.90;;;;;;4974675;28;20703;-72
2023/10/27 08:29:01;;;;;;;0.98;0.65;;;10.50;99.90;;;;;;4975471;28;20208;-72
2023/10/27 08:31:28;;;;;;;1.00;0.80;;;10.50;99.90;;;;;;4975078;28;20224;-72
2023/10/27 08:33:59;;;;;;;0.80;0.70;;;10.50;99.90;;;;;;4968237;28;20606;-72
2023/10/27 08:36:26;;;;;;;1.90;0.70;;;10.50;99.90;;;;;;4974694;28;20699;-72
2023/10/27 08:38:53;;;;;;;0.90;0.77;;;10.50;99.90;;;;;;4975108;28;20783;-71
2023/10/27 08:41:20;;;;;;;0.80;0.80;;;10.40;99.90;;;;;;4975431;28;20235;-71
2023/10/27 08:43:48;;;;;;;1.60;1.20;;;10.50;99.90;;;;;;4975046;28;20598;-72
2023/10/27 08:46:16;;;;;;;1.60;0.95;;;10.50;99.90;;;;;;4974382;28;20670;-71
2023/10/27 08:48:42;;;;;;;1.30;0.93;;;10.40;99.90;;;;;;4974927;28;20204;-72
2023/10/27 08:51:10;;;;;;;1.33;1.05;;;10.40;99.90;;;;;;4975214;28;20235;-72
2023/10/27 08:53:40;;;;;;;0.80;0.70;;;10.40;99.90;;;;;;4975144;28;20208;-72
2023/10/27 08:56:11;;;;;;;0.77;0.70;;;10.40;99.90;;;;;;4974825;28;20212;-72
2023/10/27 08:58:38;;;;;;;0.70;0.60;;;10.30;99.90;;;;;;4975122;28;20220;-72
2023/10/27 09:01:06;;;;;;;1.00;0.80;;;10.30;99.90;;;;;;4974351;28;20230;-72
2023/10/27 09:03:33;;;;;;;1.80;1.10;;;10.30;99.90;;;;;;4974807;28;20204;-72
2023/10/27 09:06:00;;;;;;;0.80;0.70;;;10.30;99.90;;;;;;4974324;28;20737;-72
2023/10/27 09:08:27;;;;;;;1.50;0.95;;;10.30;99.90;;;;;;4974833;28;20580;-71
2023/10/27 09:10:55;;;;;;;1.15;0.90;;;10.30;99.90;;;;;;4974582;28;20224;-72
2023/10/27 09:13:22;;;;;;;0.70;0.60;;;10.30;99.90;;;;;;4974552;28;20278;-71
2023/10/27 09:15:51;;;;;;;1.02;0.80;;;10.30;99.90;;;;;;4973625;28;20226;-72
2023/10/27 09:18:33;;;;;;;0.90;0.70;;;10.30;99.90;;;;;;4974870;28;20688;-71
2023/10/27 09:21:00;;;;;;;0.90;0.80;;;10.30;99.90;;;;;;4967581;28;20597;-72
2023/10/27 09:23:26;;;;;;;0.80;0.70;;;10.40;99.90;;;;;;4974570;28;20200;-72
2023/10/27 09:25:57;;;;;;;1.15;0.80;;;10.40;99.90;;;;;;4973436;28;20208;-72
2023/10/27 09:28:28;;;;;;;1.55;0.82;;;10.40;99.90;;;;;;4974794;28;20208;-72
2023/10/27 09:30:55;;;;;;;1.00;0.90;;;10.40;99.90;;;;;;4973765;28;20708;-72
2023/10/27 09:33:26;;;;;;;0.80;0.80;;;10.40;99.90;;;;;;4974430;28;20210;-72
2023/10/27 09:35:53;;;;;;;1.10;0.80;;;10.40;99.90;;;;;;4972827;28;20584;-72
2023/10/27 09:38:22;;;;;;;0.80;0.80;;;10.40;99.90;;;;;;4973405;28;20212;-71
2023/10/27 09:40:49;;;;;;;1.30;1.10;;;10.40;99.90;;;;;;4973844;28;20232;-71
2023/10/27 09:43:17;;;;;;;1.10;1.00;;;10.30;99.90;;;;;;4974400;28;20204;-71
2023/10/27 09:45:52;;;;;;;0.80;0.80;;;10.40;99.90;;;;;;4973309;28;20303;-71
2023/10/27 09:48:26;;;;;;;1.00;0.90;;;10.40;99.90;;;;;;4974442;28;20231;-72
2023/10/27 09:51:00;;;;;;;0.90;0.75;;;10.40;99.90;;;;;;4973742;28;20225;-72
2023/10/27 09:53:29;;;;;;;2.17;0.90;;;10.40;99.90;;;;;;4973880;28;20204;-72
2023/10/27 09:55:58;;;;;;;0.80;0.75;;;10.40;99.90;;;;;;4972667;28;20215;-72
2023/10/27 09:58:25;;;;;;;1.75;0.90;;;10.40;99.90;;;;;;4974096;28;20208;-72
2023/10/27 10:00:53;;;;;;;1.75;1.00;;;10.40;99.90;;;;;;4974109;28;20235;-73
2023/10/27 10:03:24;;;;;;;1.55;0.93;;;10.40;99.90;;;;;;4974415;28;20235;-71
2023/10/27 10:06:12;;;;;;;2.55;0.82;;;10.50;99.90;;;;;;4973324;28;20755;-71
2023/10/27 10:08:41;;;;;;;1.33;1.10;;;10.50;99.90;;;;;;4973353;28;20219;-72
2023/10/27 10:11:12;;;;;;;1.33;1.02;;;10.50;99.90;;;;;;4973864;28;20224;-71
2023/10/27 10:13:38;;;;;;;1.00;0.90;;;10.60;99.90;;;;;;4973411;28;20332;-71
2023/10/27 10:16:07;;;;;;;2.55;1.20;;;10.70;99.90;;;;;;4972862;28;20208;-71
2023/10/27 10:18:54;;;;;;;4.32;1.20;;;10.70;99.90;;;;;;4973620;28;20205;-72
2023/10/27 10:21:38;;;;;;;1.10;0.90;;;10.70;99.90;;;;;;4973771;28;20250;-71
2023/10/27 10:24:10;;;;;;;1.38;0.90;;;10.70;99.90;;;;;;4973171;28;20218;-72
2023/10/27 10:27:05;;;;;;;1.27;0.90;;;10.80;99.90;;;;;;4973127;28;20218;-71
2023/10/27 10:29:33;;;;;;;1.95;1.13;;;10.80;99.90;;;;;;4960458;28;20291;-71
2023/10/27 10:32:35;;;;;;;1.95;1.10;;;10.90;99.90;;;;;;4973135;28;20243;-71
2023/10/27 10:35:22;;;;;;;0.80;0.75;;;10.90;99.90;;;;;;4972450;28;20230;-72
2023/10/27 10:37:51;;;;;;;3.75;1.42;;;11.10;99.90;;;;;;4966769;28;20220;-71
2023/10/27 10:40:23;;;;;;;1.13;1.00;;;11.50;99.90;;;;;;4972968;28;20254;-71
2023/10/27 10:43:24;;;;;;;1.05;0.90;;;12.20;99.90;;;;;;4973163;28;20222;-71
2023/10/27 10:45:53;;;;;;;2.70;1.00;;;12.70;99.90;;;;;;4972524;28;20213;-71
2023/10/27 10:48:21;;;;;;;3.85;1.90;;;12.80;99.90;;;;;;4972934;28;20281;-71
2023/10/27 10:50:49;;;;;;;1.77;1.15;;;13.00;99.90;;;;;;4972798;28;20719;-72
2023/10/27 10:53:19;;;;;;;2.55;1.20;;;13.00;99.90;;;;;;4973349;28;20293;-72
2023/10/27 10:55:48;;;;;;;1.30;1.00;;;13.00;99.90;;;;;;4972934;28;20539;-72
2023/10/27 10:58:22;;;;;;;1.85;1.10;;;13.40;99.90;;;;;;4973210;28;20254;-72
2023/10/27 11:00:49;;;;;;;1.13;0.87;;;13.80;99.90;;;;;;4972945;28;20232;-71
2023/10/27 11:03:16;;;;;;;2.80;0.90;;;14.00;99.90;;;;;;4973340;28;20523;-72
2023/10/27 11:05:43;;;;;;;1.42;0.90;;;14.30;99.90;;;;;;4972322;28;20460;-71
2023/10/27 11:08:09;;;;;;;1.70;1.30;;;14.40;99.90;;;;;;4972931;28;20210;-72
2023/10/27 11:10:38;;;;;;;2.90;1.20;;;14.50;99.90;;;;;;4972914;28;20479;-72
2023/10/27 11:13:05;;;;;;;1.10;1.00;;;14.90;99.90;;;;;;4972562;28;20476;-72
2023/10/27 11:15:48;;;;;;;2.30;1.23;;;15.40;99.90;;;;;;4972132;28;20525;-72
2023/10/27 11:18:16;;;;;;;1.90;1.03;;;15.60;99.90;;;;;;4972863;28;20467;-72
2023/10/27 11:20:43;;;;;;;4.10;1.27;;;15.80;99.90;;;;;;4972774;28;20500;-72
2023/10/27 11:23:11;;;;;;;7.13;1.00;;;15.90;99.90;;;;;;4967076;28;20475;-72
2023/10/27 11:25:40;;;;;;;1.57;1.03;;;16.10;99.90;;;;;;4971875;28;20465;-71
2023/10/27 11:28:23;;;;;;;7.23;1.43;;;16.20;99.90;;;;;;4972067;28;20464;-72
2023/10/27 11:31:00;;;;;;;1.13;0.90;;;16.50;99.90;;;;;;4972066;28;20487;-72
2023/10/27 11:33:27;;;;;;;2.90;1.27;;;16.60;99.90;;;;;;4970329;28;20472;-72
2023/10/27 11:35:55;;;;;;;1.80;0.97;;;16.70;99.90;;;;;;4971532;28;20493;-72
2023/10/27 11:38:23;;;;;;;1.33;0.80;;;16.90;99.90;;;;;;4972424;28;20499;-72
2023/10/27 11:40:51;;;;;;;1.87;0.90;;;17.10;99.90;;;;;;4972611;28;20532;-72
2023/10/27 11:43:19;;;;;;;1.30;1.10;;;17.20;99.90;;;;;;4972289;28;20464;-72
2023/10/27 11:45:47;;;;;;;1.83;1.00;;;17.20;99.90;;;;;;4971740;28;20544;-72
2023/10/27 11:48:14;;;;;;;1.50;0.90;;;17.30;99.90;;;;;;4972339;28;20461;-72
2023/10/27 11:50:40;;;;;;;1.40;0.90;;;17.00;99.90;;;;;;4971944;28;20517;-72
2023/10/27 11:53:07;;;;;;;1.90;1.53;;;16.40;99.90;;;;;;4971543;28;20465;-72
2023/10/27 11:55:34;;;;;;;4.53;1.40;;;15.90;99.90;;;;;;4971537;28;20469;-72
2023/10/27 11:58:02;;;;;;;1.03;0.93;;;15.60;99.90;;;;;;4971755;28;20470;-72
2023/10/27 12:00:29;;;;;;;2.67;1.30;;;15.30;99.90;;;;;;4971300;28;20877;-72
2023/10/27 12:02:56;;;;;;;1.07;0.97;;;15.20;99.90;;;;;;4969626;28;20498;-72
2023/10/27 12:05:23;;;;;;;2.40;1.03;;;15.40;99.90;;;;;;4971356;28;21036;-72
2023/10/27 12:07:51;;;;;;;1.90;1.10;;;15.50;99.90;;;;;;4971137;28;20841;-72
2023/10/27 12:10:18;;;;;;;1.20;0.90;;;15.50;99.90;;;;;;4971681;28;20844;-72
2023/10/27 12:12:44;;;;;;;2.97;1.30;;;15.40;99.90;;;;;;4972011;28;20954;-72
2023/10/27 12:15:14;;;;;;;2.23;1.13;;;15.40;99.90;;;;;;4970935;28;20474;-72
2023/10/27 12:17:41;;;;;;;1.00;0.90;;;15.40;99.90;;;;;;4971522;28;20469;-72
2023/10/27 12:20:10;;;;;;;2.90;1.07;;;15.50;99.90;;;;;;4971571;28;20952;-72
2023/10/27 12:22:37;;;;;;;2.27;1.20;;;15.60;99.90;;;;;;4971558;28;20503;-72
2023/10/27 12:25:05;;;;;;;3.67;1.30;;;15.70;99.90;;;;;;4971075;28;21011;-72
2023/10/27 12:27:32;;;;;;;1.10;0.90;;;15.80;99.90;;;;;;4971611;28;20471;-73
2023/10/27 12:29:59;;;;;;;1.20;1.00;;;15.90;99.90;;;;;;4971238;28;20562;-71
2023/10/27 12:32:32;;;;;;;1.10;0.80;;;16.10;99.90;;;;;;4971316;28;20538;-72
2023/10/27 12:34:59;;;;;;;1.20;0.90;;;16.00;99.90;;;;;;4969360;28;20461;-72
2023/10/27 12:37:26;;;;;;;2.40;1.10;;;16.00;99.90;;;;;;4971283;28;20482;-72
2023/10/27 12:39:53;;;;;;;1.20;0.87;;;15.90;99.90;;;;;;4971620;28;20526;-72
2023/10/27 12:42:20;;;;;;;3.17;1.10;;;15.50;99.90;;;;;;4971392;28;20839;-72
2023/10/27 12:44:47;;;;;;;1.20;1.10;;;15.20;99.90;;;;;;4970877;28;20463;-72
2023/10/27 12:47:13;;;;;;;1.43;1.10;;;14.90;99.90;;;;;;4970959;28;20714;-72
2023/10/27 12:49:41;;;;;;;2.60;1.10;;;14.80;99.90;;;;;;4971806;28;20840;-72
2023/10/27 12:52:08;;;;;;;4.00;1.00;;;14.80;99.90;;;;;;4970876;28;20483;-72
2023/10/27 12:54:36;;;;;;;2.30;1.00;;;15.00;99.90;;;;;;4971454;28;20463;-72
2023/10/27 12:57:03;;;;;;;1.10;0.90;;;15.20;99.90;;;;;;4970567;28;20471;-72
2023/10/27 12:59:30;;;;;;;1.47;1.00;;;15.30;99.90;;;;;;4971420;28;20471;-72
2023/10/27 13:01:56;;;;;;;1.10;0.80;;;15.40;99.90;;;;;;4969192;28;20976;-73
2023/10/27 13:04:24;;;;;;;1.33;0.90;;;15.40;99.90;;;;;;4974605;28;20467;-73
2023/10/27 13:06:52;;;;;;;1.70;1.00;;;15.40;99.90;;;;;;4974191;28;20463;-72
2023/10/27 13:09:19;;;;;;;1.53;0.93;;;15.50;99.90;;;;;;4974820;28;20797;-71
2023/10/27 13:11:46;;;;;;;2.83;1.10;;;15.70;99.90;;;;;;4976586;28;20486;-73
2023/10/27 13:14:13;;;;;;;2.80;1.00;;;15.80;99.90;;;;;;4977757;28;20466;-73
2023/10/27 13:16:40;;;;;;;2.23;0.93;;;16.00;99.90;;;;;;4978132;28;20467;-72
2023/10/27 13:19:09;;;;;;;1.17;1.07;;;16.10;99.90;;;;;;4977892;28;20466;-72
2023/10/27 13:21:36;;;;;;;1.00;0.90;;;15.90;99.90;;;;;;4977348;28;20602;-72
2023/10/27 13:24:05;;;;;;;3.03;1.33;;;15.90;99.90;;;;;;4977680;28;20467;-73
2023/10/27 13:26:31;;;;;;;2.17;1.00;;;15.70;99.90;;;;;;4978326;28;20479;-72
2023/10/27 13:28:59;;;;;;;1.20;0.97;;;15.30;99.90;;;;;;4977604;28;20490;-72
2023/10/27 13:31:26;;;;;;;1.27;0.90;;;14.90;99.90;;;;;;4977336;28;20487;-72
2023/10/27 13:33:53;;;;;;;1.87;1.63;;;14.50;99.90;;;;;;4976272;28;20459;-73
2023/10/27 13:36:20;;;;;;;1.03;0.90;;;14.40;99.90;;;;;;4974595;28;20463;-75
2023/10/27 13:38:49;;;;;;;1.00;0.80;;;14.70;99.90;;;;;;4976212;28;20455;-74
2023/10/27 13:41:19;;;;;;;1.43;0.90;;;15.20;99.90;;;;;;4975863;28;20572;-74
2023/10/27 13:43:46;;;;;;;1.47;0.90;;;15.50;99.90;;;;;;4976004;28;20475;-73
2023/10/27 13:46:14;;;;;;;3.13;1.23;;;15.30;99.90;;;;;;4974961;28;20463;-72
2023/10/27 13:48:41;;;;;;;1.57;0.80;;;15.30;99.90;;;;;;4974120;28;20470;-72
2023/10/27 13:51:09;;;;;;;1.80;0.90;;;15.50;99.90;;;;;;4974803;28;20487;-72
2023/10/27 13:53:36;;;;;;;1.10;1.00;;;15.50;99.90;;;;;;4974716;28;20996;-71
2023/10/27 13:56:02;;;;;;;1.27;0.80;;;15.30;99.90;;;;;;4974469;28;20467;-73
2023/10/27 13:58:32;;;;;;;1.57;0.80;;;15.10;99.90;;;;;;4975367;28;20473;-74
2023/10/27 14:01:01;;;;;;;1.47;1.00;;;14.90;99.90;;;;;;4971705;28;20490;-74
2023/10/27 14:03:28;;;;;;;0.90;0.80;;;14.70;99.90;;;;;;4971345;28;20549;-73
2023/10/27 14:05:55;;;;;;;1.83;1.10;;;14.40;99.90;;;;;;4970164;28;20459;-71
2023/10/27 14:08:22;;;;;;;1.73;0.80;;;14.10;99.90;;;;;;4973756;28;20463;-72
2023/10/27 14:10:48;;;;;;;0.93;0.80;;;14.00;99.90;;;;;;4977041;28;20479;-73
2023/10/27 14:13:15;;;;;;;1.60;0.77;;;13.80;99.90;;;;;;4975381;28;20467;-73
2023/10/27 14:15:43;;;;;;;1.10;0.70;;;13.80;99.90;;;;;;4971295;28;20463;-72
2023/10/27 14:18:10;;;;;;;1.63;1.00;;;13.90;99.90;;;;;;4972231;28;20459;-74
2023/10/27 14:20:37;;;;;;;1.57;1.00;;;13.90;99.90;;;;;;4968061;28;20483;-74
2023/10/27 14:23:04;;;;;;;1.90;0.87;;;13.90;99.90;;;;;;4976139;28;21034;-72
2023/10/27 14:25:36;;;;;;;2.23;1.10;;;13.80;99.90;;;;;;4973018;28;20491;-72
2023/10/27 14:28:04;;;;;;;1.30;1.20;;;13.70;99.90;;;;;;4973631;28;20463;-73
2023/10/27 14:30:32;;;;;;;1.13;0.90;;;13.60;99.90;;;;;;4973525;28;20469;-70
2023/10/27 14:33:01;;;;;;;1.10;1.00;;;13.50;99.90;;;;;;4973452;28;20529;-72
2023/10/27 14:35:31;;;;;;;1.50;1.13;;;13.60;99.90;;;;;;4973146;28;20470;-71
2023/10/27 14:37:58;;;;;;;1.33;1.03;;;13.70;99.90;;;;;;4969496;28;20215;-71
2023/10/27 14:40:25;;;;;;;1.00;0.90;;;14.00;99.90;;;;;;4972606;28;20478;-72
2023/10/27 14:42:53;;;;;;;0.93;0.80;;;14.30;99.90;;;;;;4973248;28;20491;-72
2023/10/27 14:45:20;;;;;;;1.20;0.87;;;14.40;99.90;;;;;;4973038;28;20470;-72
2023/10/27 14:47:49;;;;;;;1.20;0.90;;;14.40;99.90;;;;;;4970242;28;20554;-72
2023/10/27 14:50:19;;;;;;;1.20;0.80;;;14.30;99.90;;;;;;4973941;28;20896;-72
2023/10/27 14:52:49;;;;;;;1.53;0.90;;;14.20;99.90;;;;;;4976635;28;20871;-73
2023/10/27 14:55:17;;;;;;;1.87;0.80;;;14.10;99.90;;;;;;4973848;28;20530;-73
2023/10/27 14:57:44;;;;;;;0.80;0.70;;;14.00;99.90;;;;;;4975707;28;20474;-73
2023/10/27 15:00:12;;;;;;;1.33;1.00;;;13.80;99.90;;;;;;4973950;28;20465;-73
2023/10/27 15:02:39;;;;;;;1.07;0.90;;;13.70;99.90;;;;;;4974738;28;21014;-74
2023/10/27 15:05:06;;;;;;;1.30;0.80;;;13.60;99.90;;;;;;4975339;28;20474;-74
2023/10/27 15:07:35;;;;;;;1.00;0.80;;;13.40;99.90;;;;;;4971115;28;20477;-73
2023/10/27 15:10:08;;;;;;;1.20;0.80;;;13.30;99.90;;;;;;4973860;28;20548;-72
2023/10/27 15:12:41;;;;;;;1.53;1.03;;;13.20;99.90;;;;;;4972369;28;20897;-72
2023/10/27 15:15:10;;;;;;;1.00;0.90;;;13.10;99.90;;;;;;4971873;28;20859;-72
2023/10/27 15:17:38;;;;;;;1.30;1.00;;;13.00;99.90;;;;;;4971938;28;20505;-71
2023/10/27 15:20:06;;;;;;;1.27;0.90;;;12.90;99.90;;;;;;4972129;28;20475;-71
2023/10/27 15:22:34;;;;;;;1.27;0.90;;;12.90;99.90;;;;;;4971508;28;20505;-71
2023/10/27 15:25:01;;;;;;;1.13;0.97;;;12.80;99.90;;;;;;4971645;28;20498;-71
2023/10/27 15:27:30;;;;;;;0.93;0.83;;;12.80;99.90;;;;;;4971118;28;20474;-71
2023/10/27 15:29:57;;;;;;;1.00;0.90;;;12.70;99.90;;;;;;4967770;28;20470;-71
2023/10/27 15:32:24;;;;;;;1.10;1.00;;;12.80;99.90;;;;;;4970738;28;20513;-72
2023/10/27 15:34:50;;;;;;;2.40;1.00;;;12.70;99.90;;;;;;4971656;28;20479;-71
2023/10/27 15:37:18;;;;;;;1.40;1.10;;;12.70;99.90;;;;;;4971183;28;20211;-71
2023/10/27 15:39:46;;;;;;;1.88;0.90;;;12.60;99.90;;;;;;4971305;28;20249;-71
2023/10/27 15:42:12;;;;;;;1.15;0.80;;;12.50;99.90;;;;;;4970995;28;20750;-70
2023/10/27 15:44:39;;;;;;;1.00;0.80;;;12.40;99.90;;;;;;4969602;28;20215;-71
2023/10/27 15:47:06;;;;;;;0.80;0.68;;;12.30;99.90;;;;;;4971371;28;20215;-71
2023/10/27 15:49:33;;;;;;;1.15;0.88;;;12.20;99.90;;;;;;4971863;28;20210;-71
2023/10/27 15:52:01;;;;;;;1.85;0.93;;;12.20;99.90;;;;;;4967809;28;20231;-70
2023/10/27 15:54:28;;;;;;;1.73;0.90;;;12.20;99.90;;;;;;4969496;28;20235;-71
2023/10/27 15:56:57;;;;;;;0.95;0.80;;;12.10;99.90;;;;;;4971485;28;20476;-71
2023/10/27 15:59:24;;;;;;;0.80;0.77;;;12.10;99.90;;;;;;4971401;28;20216;-71
2023/10/27 16:01:51;;;;;;;1.98;0.90;;;12.00;99.90;;;;;;4971731;28;20241;-71
2023/10/27 16:04:19;;;;;;;1.65;0.80;;;12.00;99.90;;;;;;4971448;28;20217;-70
2023/10/27 16:06:46;;;;;;;0.90;0.77;;;11.90;99.90;;;;;;4971784;28;20214;-71
2023/10/27 16:09:12;;;;;;;0.80;0.70;;;11.90;99.90;;;;;;4971661;28;20209;-70
2023/10/27 16:11:39;;;;;;;1.25;0.90;;;11.80;99.90;;;;;;4972176;28;20241;-71
2023/10/27 16:14:07;;;;;;;1.20;1.10;;;11.80;99.90;;;;;;4972123;28;20728;-71
2023/10/27 16:16:35;;;;;;;2.35;0.98;;;11.80;99.90;;;;;;4971104;28;20234;-71
2023/10/27 16:19:02;;;;;;;2.03;0.90;;;11.70;99.90;;;;;;4972144;28;20210;-71
2023/10/27 16:21:28;;;;;;;1.42;1.00;;;11.60;99.90;;;;;;4970829;28;20605;-70
2023/10/27 16:23:56;;;;;;;1.27;0.90;;;11.60;99.90;;;;;;4968245;28;20236;-71
2023/10/27 16:26:23;;;;;;;1.55;1.45;;;11.50;99.90;;;;;;4970277;28;20212;-71
2023/10/27 16:28:50;;;;;;;1.10;0.90;;;11.50;99.90;;;;;;4967137;28;20206;-71